sensor_id;sensor_type;location;lat;lon;timestamp;P1;durP1;ratioP1;P2;durP2;ratioP2
10721;SDS011;5412;59.450;18.124;2023-11-18T00:01:15;5.33;;;3.33;;
10721;SDS011;5412;59.450;18.124;2023-11-18T00:03:41;5.17;;;2.80;;
10721;SDS011;5412;59.450;18.124;2023-11-18T00:06:06;3.90;;;3.37;;
10721;SDS011;5412;59.450;18.124;2023-11-18T00:08:33;5.27;;;3.03;;
10721;SDS011;5412;59.450;18.124;2023-11-18T00:10:59;5.13;;;3.17;;
10721;SDS011;5412;59.450;18.124;2023-11-18T00:13:24;4.23;;;3.03;;
10721;SDS011;5412;59.450;18.124;2023-11-18T00:15:51;4.23;;;3.10;;
10721;SDS011;5412;59.450;18.124;2023-11-18T00:18:17;3.47;;;2.33;;
10721;SDS011;5412;59.450;18.124;2023-11-18T00:20:44;3.90;;;2.70;;
10721;SDS011;5412;59.450;18.124;2023-11-18T00:23:10;3.03;;;2.67;;
10721;SDS011;5412;59.450;18.124;2023-11-18T00:25:36;4.17;;;2.53;;
10721;SDS011;5412;59.450;18.124;2023-11-18T00:28:05;3.03;;;2.60;;
10721;SDS011;5412;59.450;18.124;2023-11-18T00:30:32;7.30;;;2.80;;
10721;SDS011;5412;59.450;18.124;2023-11-18T00:32:58;5.80;;;3.07;;
10721;SDS011;5412;59.450;18.124;2023-11-18T00:35:24;4.57;;;3.17;;
10721;SDS011;5412;59.450;18.124;2023-11-18T00:37:50;4.57;;;3.47;;
10721;SDS011;5412;59.450;18.124;2023-11-18T00:40:15;4.30;;;3.43;;
10721;SDS011;5412;59.450;18.124;2023-11-18T00:42:43;5.90;;;3.90;;
10721;SDS011;5412;59.450;18.124;2023-11-18T00:45:10;5.77;;;3.33;;
10721;SDS011;5412;59.450;18.124;2023-11-18T00:47:37;5.33;;;4.07;;
10721;SDS011;5412;59.450;18.124;2023-11-18T00:50:04;9.90;;;4.23;;
10721;SDS011;5412;59.450;18.124;2023-11-18T00:52:33;4.60;;;3.37;;
10721;SDS011;5412;59.450;18.124;2023-11-18T00:54:59;4.40;;;2.97;;
10721;SDS011;5412;59.450;18.124;2023-11-18T00:57:25;7.67;;;3.23;;
10721;SDS011;5412;59.450;18.124;2023-11-18T00:59:51;5.20;;;3.77;;
10721;SDS011;5412;59.450;18.124;2023-11-18T01:02:17;4.77;;;3.73;;
10721;SDS011;5412;59.450;18.124;2023-11-18T01:04:43;4.97;;;3.93;;
10721;SDS011;5412;59.450;18.124;2023-11-18T01:07:11;6.73;;;3.33;;
10721;SDS011;5412;59.450;18.124;2023-11-18T01:09:37;5.27;;;2.90;;
10721;SDS011;5412;59.450;18.124;2023-11-18T01:12:04;5.90;;;3.40;;
10721;SDS011;5412;59.450;18.124;2023-11-18T01:14:35;4.37;;;2.97;;
10721;SDS011;5412;59.450;18.124;2023-11-18T01:17:02;4.10;;;3.33;;
10721;SDS011;5412;59.450;18.124;2023-11-18T01:19:28;5.63;;;2.70;;
10721;SDS011;5412;59.450;18.124;2023-11-18T01:21:54;3.97;;;2.50;;
10721;SDS011;5412;59.450;18.124;2023-11-18T01:24:20;5.13;;;2.70;;
10721;SDS011;5412;59.450;18.124;2023-11-18T01:26:46;4.83;;;3.20;;
10721;SDS011;5412;59.450;18.124;2023-11-18T01:29:12;4.53;;;2.97;;
10721;SDS011;5412;59.450;18.124;2023-11-18T01:31:38;4.63;;;2.83;;
10721;SDS011;5412;59.450;18.124;2023-11-18T01:34:06;5.50;;;3.27;;
10721;SDS011;5412;59.450;18.124;2023-11-18T01:36:32;4.80;;;2.80;;
10721;SDS011;5412;59.450;18.124;2023-11-18T01:38:58;5.53;;;3.00;;
10721;SDS011;5412;59.450;18.124;2023-11-18T01:41:25;7.37;;;3.73;;
10721;SDS011;5412;59.450;18.124;2023-11-18T01:43:51;4.70;;;3.20;;
10721;SDS011;5412;59.450;18.124;2023-11-18T01:46:18;4.17;;;2.97;;
10721;SDS011;5412;59.450;18.124;2023-11-18T01:48:46;5.27;;;3.23;;
10721;SDS011;5412;59.450;18.124;2023-11-18T01:51:12;5.93;;;3.43;;
10721;SDS011;5412;59.450;18.124;2023-11-18T01:53:39;6.37;;;3.80;;
10721;SDS011;5412;59.450;18.124;2023-11-18T01:56:08;7.40;;;4.20;;
10721;SDS011;5412;59.450;18.124;2023-11-18T01:58:36;4.53;;;3.27;;
10721;SDS011;5412;59.450;18.124;2023-11-18T02:01:03;6.23;;;3.33;;
10721;SDS011;5412;59.450;18.124;2023-11-18T02:03:33;5.03;;;3.80;;
10721;SDS011;5412;59.450;18.124;2023-11-18T02:06:00;3.27;;;2.90;;
10721;SDS011;5412;59.450;18.124;2023-11-18T02:08:32;5.03;;;3.60;;
10721;SDS011;5412;59.450;18.124;2023-11-18T02:11:01;5.13;;;3.80;;
10721;SDS011;5412;59.450;18.124;2023-11-18T02:13:39;5.70;;;3.67;;
10721;SDS011;5412;59.450;18.124;2023-11-18T02:16:07;4.67;;;3.10;;
10721;SDS011;5412;59.450;18.124;2023-11-18T02:18:34;3.80;;;3.10;;
10721;SDS011;5412;59.450;18.124;2023-11-18T02:21:04;3.83;;;3.40;;
10721;SDS011;5412;59.450;18.124;2023-11-18T02:23:33;4.60;;;3.30;;
10721;SDS011;5412;59.450;18.124;2023-11-18T02:25:58;5.33;;;3.77;;
10721;SDS011;5412;59.450;18.124;2023-11-18T02:28:26;6.00;;;3.80;;
10721;SDS011;5412;59.450;18.124;2023-11-18T02:30:54;4.93;;;3.10;;
10721;SDS011;5412;59.450;18.124;2023-11-18T02:33:32;6.33;;;3.40;;
10721;SDS011;5412;59.450;18.124;2023-11-18T02:36:16;4.23;;;3.47;;
10721;SDS011;5412;59.450;18.124;2023-11-18T02:38:50;4.43;;;3.10;;
10721;SDS011;5412;59.450;18.124;2023-11-18T02:41:20;5.03;;;3.17;;
10721;SDS011;5412;59.450;18.124;2023-11-18T02:43:47;5.03;;;2.77;;
10721;SDS011;5412;59.450;18.124;2023-11-18T02:46:14;4.27;;;3.20;;
10721;SDS011;5412;59.450;18.124;2023-11-18T02:48:41;5.17;;;3.13;;
10721;SDS011;5412;59.450;18.124;2023-11-18T02:51:08;6.63;;;2.80;;
10721;SDS011;5412;59.450;18.124;2023-11-18T02:53:37;3.13;;;2.50;;
10721;SDS011;5412;59.450;18.124;2023-11-18T02:56:03;4.10;;;2.70;;
10721;SDS011;5412;59.450;18.124;2023-11-18T02:58:29;5.53;;;3.17;;
10721;SDS011;5412;59.450;18.124;2023-11-18T03:00:55;5.17;;;3.20;;
10721;SDS011;5412;59.450;18.124;2023-11-18T03:03:22;3.77;;;2.60;;
10721;SDS011;5412;59.450;18.124;2023-11-18T03:05:48;3.60;;;2.70;;
10721;SDS011;5412;59.450;18.124;2023-11-18T03:08:15;3.53;;;2.80;;
10721;SDS011;5412;59.450;18.124;2023-11-18T03:10:40;4.03;;;2.83;;
10721;SDS011;5412;59.450;18.124;2023-11-18T03:13:09;4.67;;;2.63;;
10721;SDS011;5412;59.450;18.124;2023-11-18T03:15:35;3.00;;;2.30;;
10721;SDS011;5412;59.450;18.124;2023-11-18T03:18:00;3.93;;;2.60;;
10721;SDS011;5412;59.450;18.124;2023-11-18T03:20:26;4.57;;;2.60;;
10721;SDS011;5412;59.450;18.124;2023-11-18T03:22:52;4.13;;;2.83;;
10721;SDS011;5412;59.450;18.124;2023-11-18T03:25:18;4.23;;;2.30;;
10721;SDS011;5412;59.450;18.124;2023-11-18T03:27:46;4.10;;;2.47;;
10721;SDS011;5412;59.450;18.124;2023-11-18T03:30:12;3.20;;;2.20;;
10721;SDS011;5412;59.450;18.124;2023-11-18T03:32:47;3.23;;;2.50;;
10721;SDS011;5412;59.450;18.124;2023-11-18T03:35:12;3.77;;;2.60;;
10721;SDS011;5412;59.450;18.124;2023-11-18T03:37:38;3.47;;;2.37;;
10721;SDS011;5412;59.450;18.124;2023-11-18T03:40:08;3.33;;;2.93;;
10721;SDS011;5412;59.450;18.124;2023-11-18T03:42:36;5.57;;;2.63;;
10721;SDS011;5412;59.450;18.124;2023-11-18T03:45:03;2.87;;;2.23;;
10721;SDS011;5412;59.450;18.124;2023-11-18T03:47:30;3.23;;;2.43;;
10721;SDS011;5412;59.450;18.124;2023-11-18T03:49:56;2.43;;;1.90;;
10721;SDS011;5412;59.450;18.124;2023-11-18T03:52:22;3.33;;;2.30;;
10721;SDS011;5412;59.450;18.124;2023-11-18T03:54:47;2.63;;;2.03;;
10721;SDS011;5412;59.450;18.124;2023-11-18T03:57:13;3.37;;;2.43;;
10721;SDS011;5412;59.450;18.124;2023-11-18T03:59:39;3.23;;;2.40;;
10721;SDS011;5412;59.450;18.124;2023-11-18T04:02:08;2.90;;;2.03;;
10721;SDS011;5412;59.450;18.124;2023-11-18T04:04:36;2.37;;;1.90;;
10721;SDS011;5412;59.450;18.124;2023-11-18T04:07:02;3.00;;;2.17;;
10721;SDS011;5412;59.450;18.124;2023-11-18T04:09:29;2.80;;;2.30;;
10721;SDS011;5412;59.450;18.124;2023-11-18T04:11:55;3.43;;;2.40;;
10721;SDS011;5412;59.450;18.124;2023-11-18T04:14:20;3.60;;;2.40;;
10721;SDS011;5412;59.450;18.124;2023-11-18T04:16:46;3.63;;;2.30;;
10721;SDS011;5412;59.450;18.124;2023-11-18T04:19:15;2.13;;;1.83;;
10721;SDS011;5412;59.450;18.124;2023-11-18T04:21:41;3.43;;;1.93;;
10721;SDS011;5412;59.450;18.124;2023-11-18T04:24:06;3.60;;;2.50;;
10721;SDS011;5412;59.450;18.124;2023-11-18T04:26:32;3.20;;;2.30;;
10721;SDS011;5412;59.450;18.124;2023-11-18T04:28:58;2.83;;;2.10;;
10721;SDS011;5412;59.450;18.124;2023-11-18T04:31:24;2.20;;;1.90;;
10721;SDS011;5412;59.450;18.124;2023-11-18T04:33:50;4.20;;;2.17;;
10721;SDS011;5412;59.450;18.124;2023-11-18T04:36:15;2.93;;;2.10;;
10721;SDS011;5412;59.450;18.124;2023-11-18T04:38:41;2.60;;;1.90;;
10721;SDS011;5412;59.450;18.124;2023-11-18T04:41:08;2.63;;;2.30;;
10721;SDS011;5412;59.450;18.124;2023-11-18T04:43:34;2.30;;;1.87;;
10721;SDS011;5412;59.450;18.124;2023-11-18T04:46:00;4.27;;;2.40;;
10721;SDS011;5412;59.450;18.124;2023-11-18T04:48:26;2.47;;;2.17;;
10721;SDS011;5412;59.450;18.124;2023-11-18T04:50:51;2.43;;;2.10;;
10721;SDS011;5412;59.450;18.124;2023-11-18T04:53:17;3.20;;;2.40;;
10721;SDS011;5412;59.450;18.124;2023-11-18T04:55:43;3.03;;;2.27;;
10721;SDS011;5412;59.450;18.124;2023-11-18T04:58:09;2.37;;;1.97;;
10721;SDS011;5412;59.450;18.124;2023-11-18T05:00:35;2.50;;;2.13;;
10721;SDS011;5412;59.450;18.124;2023-11-18T05:03:04;2.80;;;2.17;;
10721;SDS011;5412;59.450;18.124;2023-11-18T05:05:34;4.10;;;2.47;;
10721;SDS011;5412;59.450;18.124;2023-11-18T05:08:03;2.73;;;2.10;;
10721;SDS011;5412;59.450;18.124;2023-11-18T05:10:32;3.43;;;2.23;;
10721;SDS011;5412;59.450;18.124;2023-11-18T05:12:58;3.13;;;2.07;;
10721;SDS011;5412;59.450;18.124;2023-11-18T05:15:24;2.57;;;2.17;;
10721;SDS011;5412;59.450;18.124;2023-11-18T05:17:53;3.37;;;2.20;;
10721;SDS011;5412;59.450;18.124;2023-11-18T05:20:20;3.80;;;2.37;;
10721;SDS011;5412;59.450;18.124;2023-11-18T05:22:46;2.67;;;2.30;;
10721;SDS011;5412;59.450;18.124;2023-11-18T05:25:12;3.07;;;2.27;;
10721;SDS011;5412;59.450;18.124;2023-11-18T05:27:38;3.50;;;2.30;;
10721;SDS011;5412;59.450;18.124;2023-11-18T05:30:08;3.87;;;2.50;;
10721;SDS011;5412;59.450;18.124;2023-11-18T05:32:34;3.10;;;2.10;;
10721;SDS011;5412;59.450;18.124;2023-11-18T05:35:00;3.23;;;2.20;;
10721;SDS011;5412;59.450;18.124;2023-11-18T05:37:26;3.50;;;2.30;;
10721;SDS011;5412;59.450;18.124;2023-11-18T05:40:00;3.77;;;2.13;;
10721;SDS011;5412;59.450;18.124;2023-11-18T05:42:31;3.63;;;2.60;;
10721;SDS011;5412;59.450;18.124;2023-11-18T05:44:58;3.00;;;2.30;;
10721;SDS011;5412;59.450;18.124;2023-11-18T05:47:27;7.33;;;2.20;;
10721;SDS011;5412;59.450;18.124;2023-11-18T05:49:53;3.30;;;2.17;;
10721;SDS011;5412;59.450;18.124;2023-11-18T05:52:19;5.57;;;2.80;;
10721;SDS011;5412;59.450;18.124;2023-11-18T05:54:46;5.10;;;3.00;;
10721;SDS011;5412;59.450;18.124;2023-11-18T05:57:15;4.07;;;2.57;;
10721;SDS011;5412;59.450;18.124;2023-11-18T05:59:41;3.00;;;2.10;;
10721;SDS011;5412;59.450;18.124;2023-11-18T06:02:08;2.73;;;2.13;;
10721;SDS011;5412;59.450;18.124;2023-11-18T06:04:34;3.47;;;2.50;;
10721;SDS011;5412;59.450;18.124;2023-11-18T06:07:00;5.37;;;2.30;;
10721;SDS011;5412;59.450;18.124;2023-11-18T06:09:27;2.20;;;2.00;;
10721;SDS011;5412;59.450;18.124;2023-11-18T06:11:53;2.47;;;1.90;;
10721;SDS011;5412;59.450;18.124;2023-11-18T06:14:20;4.27;;;2.27;;
10721;SDS011;5412;59.450;18.124;2023-11-18T06:16:49;2.93;;;2.20;;
10721;SDS011;5412;59.450;18.124;2023-11-18T06:19:15;3.67;;;2.17;;
10721;SDS011;5412;59.450;18.124;2023-11-18T06:21:41;2.83;;;2.30;;
10721;SDS011;5412;59.450;18.124;2023-11-18T06:24:07;3.33;;;2.53;;
10721;SDS011;5412;59.450;18.124;2023-11-18T06:26:36;4.07;;;2.83;;
10721;SDS011;5412;59.450;18.124;2023-11-18T06:29:02;3.90;;;2.70;;
10721;SDS011;5412;59.450;18.124;2023-11-18T06:31:29;2.77;;;2.37;;
10721;SDS011;5412;59.450;18.124;2023-11-18T06:33:55;3.00;;;2.60;;
10721;SDS011;5412;59.450;18.124;2023-11-18T06:36:21;3.07;;;2.20;;
10721;SDS011;5412;59.450;18.124;2023-11-18T06:38:49;3.33;;;2.23;;
10721;SDS011;5412;59.450;18.124;2023-11-18T06:41:17;2.57;;;2.20;;
10721;SDS011;5412;59.450;18.124;2023-11-18T06:43:44;3.30;;;2.13;;
10721;SDS011;5412;59.450;18.124;2023-11-18T06:46:38;2.63;;;2.23;;
10721;SDS011;5412;59.450;18.124;2023-11-18T06:49:04;2.83;;;2.00;;
10721;SDS011;5412;59.450;18.124;2023-11-18T06:51:32;3.00;;;2.03;;
10721;SDS011;5412;59.450;18.124;2023-11-18T06:54:03;4.67;;;2.40;;
10721;SDS011;5412;59.450;18.124;2023-11-18T06:56:42;2.70;;;2.20;;
10721;SDS011;5412;59.450;18.124;2023-11-18T06:59:08;3.97;;;2.63;;
10721;SDS011;5412;59.450;18.124;2023-11-18T07:01:38;3.83;;;2.33;;
10721;SDS011;5412;59.450;18.124;2023-11-18T07:04:06;2.47;;;2.07;;
10721;SDS011;5412;59.450;18.124;2023-11-18T07:06:33;6.17;;;2.33;;
10721;SDS011;5412;59.450;18.124;2023-11-18T07:09:03;3.03;;;2.60;;
10721;SDS011;5412;59.450;18.124;2023-11-18T07:11:45;2.43;;;2.00;;
10721;SDS011;5412;59.450;18.124;2023-11-18T07:14:12;2.63;;;2.13;;
10721;SDS011;5412;59.450;18.124;2023-11-18T07:16:39;2.67;;;2.20;;
10721;SDS011;5412;59.450;18.124;2023-11-18T07:19:06;3.13;;;2.50;;
10721;SDS011;5412;59.450;18.124;2023-11-18T07:21:32;5.13;;;2.20;;
10721;SDS011;5412;59.450;18.124;2023-11-18T07:23:59;2.73;;;2.07;;
10721;SDS011;5412;59.450;18.124;2023-11-18T07:26:25;2.40;;;2.10;;
10721;SDS011;5412;59.450;18.124;2023-11-18T07:28:53;2.40;;;2.20;;
10721;SDS011;5412;59.450;18.124;2023-11-18T07:31:18;3.80;;;2.47;;
10721;SDS011;5412;59.450;18.124;2023-11-18T07:33:45;4.13;;;2.40;;
10721;SDS011;5412;59.450;18.124;2023-11-18T07:36:17;2.87;;;2.30;;
10721;SDS011;5412;59.450;18.124;2023-11-18T07:38:45;2.70;;;2.30;;
10721;SDS011;5412;59.450;18.124;2023-11-18T07:41:11;3.40;;;2.40;;
10721;SDS011;5412;59.450;18.124;2023-11-18T07:43:49;3.73;;;2.70;;
10721;SDS011;5412;59.450;18.124;2023-11-18T07:46:16;3.50;;;2.70;;
10721;SDS011;5412;59.450;18.124;2023-11-18T07:48:41;5.73;;;2.10;;
10721;SDS011;5412;59.450;18.124;2023-11-18T07:51:07;2.30;;;2.03;;
10721;SDS011;5412;59.450;18.124;2023-11-18T07:53:33;2.70;;;2.10;;
10721;SDS011;5412;59.450;18.124;2023-11-18T07:55:59;2.60;;;2.10;;
10721;SDS011;5412;59.450;18.124;2023-11-18T07:58:26;2.13;;;1.90;;
10721;SDS011;5412;59.450;18.124;2023-11-18T08:00:53;3.23;;;2.50;;
10721;SDS011;5412;59.450;18.124;2023-11-18T08:03:19;2.97;;;2.27;;
10721;SDS011;5412;59.450;18.124;2023-11-18T08:05:45;2.37;;;2.00;;
10721;SDS011;5412;59.450;18.124;2023-11-18T08:08:11;5.20;;;2.20;;
10721;SDS011;5412;59.450;18.124;2023-11-18T08:10:38;1.97;;;1.77;;
10721;SDS011;5412;59.450;18.124;2023-11-18T08:13:08;2.47;;;2.00;;
10721;SDS011;5412;59.450;18.124;2023-11-18T08:15:34;2.83;;;2.03;;
10721;SDS011;5412;59.450;18.124;2023-11-18T08:18:03;2.73;;;2.20;;
10721;SDS011;5412;59.450;18.124;2023-11-18T08:20:29;3.40;;;2.00;;
10721;SDS011;5412;59.450;18.124;2023-11-18T08:22:55;1.73;;;1.63;;
10721;SDS011;5412;59.450;18.124;2023-11-18T08:25:21;3.17;;;1.93;;
10721;SDS011;5412;59.450;18.124;2023-11-18T08:27:47;2.00;;;1.80;;
10721;SDS011;5412;59.450;18.124;2023-11-18T08:30:13;3.57;;;1.70;;
10721;SDS011;5412;59.450;18.124;2023-11-18T08:32:40;2.00;;;1.80;;
10721;SDS011;5412;59.450;18.124;2023-11-18T08:35:10;2.70;;;1.70;;
10721;SDS011;5412;59.450;18.124;2023-11-18T08:37:41;3.00;;;1.33;;
10721;SDS011;5412;59.450;18.124;2023-11-18T08:40:13;2.33;;;1.60;;
10721;SDS011;5412;59.450;18.124;2023-11-18T08:42:50;2.27;;;1.80;;
10721;SDS011;5412;59.450;18.124;2023-11-18T08:47:46;1.90;;;1.43;;
10721;SDS011;5412;59.450;18.124;2023-11-18T08:50:13;2.40;;;1.27;;
10721;SDS011;5412;59.450;18.124;2023-11-18T08:52:39;1.33;;;1.23;;
10721;SDS011;5412;59.450;18.124;2023-11-18T08:55:11;1.50;;;1.40;;
10721;SDS011;5412;59.450;18.124;2023-11-18T08:57:48;1.50;;;1.40;;
10721;SDS011;5412;59.450;18.124;2023-11-18T09:00:26;3.53;;;1.10;;
10721;SDS011;5412;59.450;18.124;2023-11-18T09:05:59;1.70;;;1.47;;
10721;SDS011;5412;59.450;18.124;2023-11-18T09:08:31;1.27;;;1.17;;
10721;SDS011;5412;59.450;18.124;2023-11-18T09:11:01;2.57;;;1.20;;
10721;SDS011;5412;59.450;18.124;2023-11-18T09:13:30;1.20;;;1.10;;
10721;SDS011;5412;59.450;18.124;2023-11-18T09:16:00;1.40;;;1.20;;
10721;SDS011;5412;59.450;18.124;2023-11-18T09:18:28;1.97;;;1.10;;
10721;SDS011;5412;59.450;18.124;2023-11-18T09:20:55;1.53;;;1.37;;
10721;SDS011;5412;59.450;18.124;2023-11-18T09:23:24;1.40;;;1.23;;
10721;SDS011;5412;59.450;18.124;2023-11-18T09:25:52;1.33;;;1.10;;
10721;SDS011;5412;59.450;18.124;2023-11-18T09:28:20;1.03;;;1.00;;
10721;SDS011;5412;59.450;18.124;2023-11-18T09:30:49;1.20;;;1.10;;
10721;SDS011;5412;59.450;18.124;2023-11-18T09:33:19;0.87;;;0.87;;
10721;SDS011;5412;59.450;18.124;2023-11-18T09:36:04;1.20;;;1.10;;
10721;SDS011;5412;59.450;18.124;2023-11-18T09:38:40;1.87;;;1.00;;
10721;SDS011;5412;59.450;18.124;2023-11-18T09:41:07;0.90;;;0.90;;
10721;SDS011;5412;59.450;18.124;2023-11-18T09:43:40;0.93;;;0.93;;
10721;SDS011;5412;59.450;18.124;2023-11-18T09:46:11;1.00;;;0.90;;
10721;SDS011;5412;59.450;18.124;2023-11-18T09:51:19;2.20;;;1.60;;
10721;SDS011;5412;59.450;18.124;2023-11-18T09:53:48;2.23;;;1.77;;
10721;SDS011;5412;59.450;18.124;2023-11-18T09:56:18;2.63;;;1.90;;
10721;SDS011;5412;59.450;18.124;2023-11-18T09:59:01;2.93;;;1.80;;
10721;SDS011;5412;59.450;18.124;2023-11-18T10:01:40;1.43;;;1.33;;
10721;SDS011;5412;59.450;18.124;2023-11-18T10:04:09;2.30;;;2.00;;
10721;SDS011;5412;59.450;18.124;2023-11-18T10:06:36;1.87;;;1.53;;
10721;SDS011;5412;59.450;18.124;2023-11-18T10:09:08;1.43;;;1.33;;
10721;SDS011;5412;59.450;18.124;2023-11-18T10:11:44;1.30;;;1.10;;
10721;SDS011;5412;59.450;18.124;2023-11-18T10:14:13;1.60;;;1.27;;
10721;SDS011;5412;59.450;18.124;2023-11-18T10:16:43;1.30;;;1.20;;
10721;SDS011;5412;59.450;18.124;2023-11-18T10:19:11;1.17;;;1.07;;
10721;SDS011;5412;59.450;18.124;2023-11-18T10:21:39;0.90;;;0.90;;
10721;SDS011;5412;59.450;18.124;2023-11-18T10:24:08;1.80;;;1.30;;
10721;SDS011;5412;59.450;18.124;2023-11-18T10:27:00;1.40;;;1.30;;
10721;SDS011;5412;59.450;18.124;2023-11-18T10:29:25;1.10;;;1.07;;
10721;SDS011;5412;59.450;18.124;2023-11-18T10:32:06;1.50;;;1.33;;
10721;SDS011;5412;59.450;18.124;2023-11-18T10:34:41;1.33;;;1.23;;
10721;SDS011;5412;59.450;18.124;2023-11-18T10:37:08;1.00;;;1.00;;
10721;SDS011;5412;59.450;18.124;2023-11-18T10:39:36;2.30;;;1.50;;
10721;SDS011;5412;59.450;18.124;2023-11-18T10:42:02;1.60;;;1.50;;
10721;SDS011;5412;59.450;18.124;2023-11-18T10:44:28;1.40;;;1.30;;
10721;SDS011;5412;59.450;18.124;2023-11-18T10:46:54;2.60;;;1.43;;
10721;SDS011;5412;59.450;18.124;2023-11-18T10:49:27;2.13;;;1.60;;
10721;SDS011;5412;59.450;18.124;2023-11-18T10:52:02;1.97;;;1.43;;
10721;SDS011;5412;59.450;18.124;2023-11-18T10:54:32;2.00;;;1.20;;
10721;SDS011;5412;59.450;18.124;2023-11-18T10:57:00;3.03;;;1.30;;
10721;SDS011;5412;59.450;18.124;2023-11-18T10:59:32;1.20;;;1.10;;
10721;SDS011;5412;59.450;18.124;2023-11-18T11:01:58;2.40;;;1.53;;
10721;SDS011;5412;59.450;18.124;2023-11-18T11:04:24;1.33;;;1.23;;
10721;SDS011;5412;59.450;18.124;2023-11-18T11:06:50;1.80;;;1.53;;
10721;SDS011;5412;59.450;18.124;2023-11-18T11:09:19;1.40;;;1.27;;
10721;SDS011;5412;59.450;18.124;2023-11-18T11:11:52;2.27;;;1.30;;
10721;SDS011;5412;59.450;18.124;2023-11-18T11:14:25;2.50;;;1.70;;
10721;SDS011;5412;59.450;18.124;2023-11-18T11:17:00;1.20;;;1.00;;
10721;SDS011;5412;59.450;18.124;2023-11-18T11:20:22;3.70;;;1.10;;
10721;SDS011;5412;59.450;18.124;2023-11-18T11:22:38;1.30;;;1.20;;
10721;SDS011;5412;59.450;18.124;2023-11-18T11:30:29;2.13;;;1.30;;
10721;SDS011;5412;59.450;18.124;2023-11-18T11:35:48;1.40;;;1.30;;
10721;SDS011;5412;59.450;18.124;2023-11-18T11:38:20;1.87;;;1.50;;
10721;SDS011;5412;59.450;18.124;2023-11-18T11:40:47;1.40;;;1.23;;
10721;SDS011;5412;59.450;18.124;2023-11-18T11:43:14;1.30;;;1.20;;
10721;SDS011;5412;59.450;18.124;2023-11-18T11:45:47;1.83;;;1.73;;
10721;SDS011;5412;59.450;18.124;2023-11-18T11:48:16;2.23;;;1.50;;
10721;SDS011;5412;59.450;18.124;2023-11-18T11:50:54;1.90;;;1.37;;
10721;SDS011;5412;59.450;18.124;2023-11-18T11:53:29;6.13;;;2.93;;
10721;SDS011;5412;59.450;18.124;2023-11-18T11:56:01;1.87;;;1.17;;
10721;SDS011;5412;59.450;18.124;2023-11-18T11:58:34;5.97;;;2.23;;
10721;SDS011;5412;59.450;18.124;2023-11-18T12:01:21;8.60;;;1.80;;
10721;SDS011;5412;59.450;18.124;2023-11-18T12:03:54;9.57;;;2.70;;
10721;SDS011;5412;59.450;18.124;2023-11-18T12:06:23;2.20;;;1.60;;
10721;SDS011;5412;59.450;18.124;2023-11-18T12:08:52;2.40;;;1.10;;
10721;SDS011;5412;59.450;18.124;2023-11-18T12:11:18;3.57;;;1.20;;
10721;SDS011;5412;59.450;18.124;2023-11-18T12:14:02;1.40;;;1.30;;
10721;SDS011;5412;59.450;18.124;2023-11-18T12:17:00;1.83;;;1.50;;
10721;SDS011;5412;59.450;18.124;2023-11-18T12:19:42;1.80;;;1.30;;
10721;SDS011;5412;59.450;18.124;2023-11-18T12:27:12;1.60;;;1.10;;
10721;SDS011;5412;59.450;18.124;2023-11-18T12:29:42;3.60;;;1.77;;
10721;SDS011;5412;59.450;18.124;2023-11-18T12:32:10;1.67;;;1.53;;
10721;SDS011;5412;59.450;18.124;2023-11-18T12:43:46;3.43;;;1.40;;
10721;SDS011;5412;59.450;18.124;2023-11-18T12:49:07;1.57;;;1.47;;
10721;SDS011;5412;59.450;18.124;2023-11-18T12:51:40;1.67;;;1.53;;
10721;SDS011;5412;59.450;18.124;2023-11-18T12:54:10;2.07;;;1.47;;
10721;SDS011;5412;59.450;18.124;2023-11-18T12:56:41;2.97;;;2.00;;
10721;SDS011;5412;59.450;18.124;2023-11-18T12:59:14;1.50;;;1.40;;
10721;SDS011;5412;59.450;18.124;2023-11-18T13:01:51;6.20;;;1.60;;
10721;SDS011;5412;59.450;18.124;2023-11-18T13:04:23;1.60;;;1.40;;
10721;SDS011;5412;59.450;18.124;2023-11-18T13:06:50;2.67;;;1.67;;
10721;SDS011;5412;59.450;18.124;2023-11-18T13:09:16;1.87;;;1.57;;
10721;SDS011;5412;59.450;18.124;2023-11-18T13:11:52;1.60;;;1.50;;
10721;SDS011;5412;59.450;18.124;2023-11-18T13:14:26;2.17;;;1.50;;
10721;SDS011;5412;59.450;18.124;2023-11-18T13:16:53;2.90;;;1.40;;
10721;SDS011;5412;59.450;18.124;2023-11-18T13:19:24;1.80;;;1.40;;
10721;SDS011;5412;59.450;18.124;2023-11-18T13:21:56;2.37;;;1.70;;
10721;SDS011;5412;59.450;18.124;2023-11-18T13:24:38;2.80;;;1.50;;
10721;SDS011;5412;59.450;18.124;2023-11-18T13:27:06;1.63;;;1.50;;
10721;SDS011;5412;59.450;18.124;2023-11-18T13:29:37;1.37;;;1.20;;
10721;SDS011;5412;59.450;18.124;2023-11-18T13:32:06;1.37;;;1.27;;
10721;SDS011;5412;59.450;18.124;2023-11-18T13:34:35;1.43;;;1.20;;
10721;SDS011;5412;59.450;18.124;2023-11-18T13:37:05;4.10;;;1.40;;
10721;SDS011;5412;59.450;18.124;2023-11-18T13:39:32;1.60;;;1.10;;
10721;SDS011;5412;59.450;18.124;2023-11-18T13:41:58;3.30;;;1.40;;
10721;SDS011;5412;59.450;18.124;2023-11-18T13:44:59;1.83;;;1.50;;
10721;SDS011;5412;59.450;18.124;2023-11-18T13:47:31;2.17;;;1.50;;
10721;SDS011;5412;59.450;18.124;2023-11-18T13:49:57;1.60;;;1.50;;
10721;SDS011;5412;59.450;18.124;2023-11-18T13:52:26;2.17;;;1.63;;
10721;SDS011;5412;59.450;18.124;2023-11-18T13:54:52;1.17;;;1.07;;
10721;SDS011;5412;59.450;18.124;2023-11-18T13:57:22;3.10;;;1.23;;
10721;SDS011;5412;59.450;18.124;2023-11-18T13:59:49;2.40;;;1.30;;
10721;SDS011;5412;59.450;18.124;2023-11-18T14:02:15;1.90;;;1.40;;
10721;SDS011;5412;59.450;18.124;2023-11-18T14:04:44;2.67;;;1.50;;
10721;SDS011;5412;59.450;18.124;2023-11-18T14:07:09;1.50;;;1.20;;
10721;SDS011;5412;59.450;18.124;2023-11-18T14:09:41;4.00;;;1.40;;
10721;SDS011;5412;59.450;18.124;2023-11-18T14:12:09;1.73;;;1.30;;
10721;SDS011;5412;59.450;18.124;2023-11-18T14:14:36;1.50;;;1.40;;
10721;SDS011;5412;59.450;18.124;2023-11-18T14:17:02;1.80;;;1.27;;
10721;SDS011;5412;59.450;18.124;2023-11-18T14:19:33;2.73;;;1.37;;
10721;SDS011;5412;59.450;18.124;2023-11-18T14:22:02;2.13;;;1.50;;
10721;SDS011;5412;59.450;18.124;2023-11-18T14:24:32;2.17;;;1.47;;
10721;SDS011;5412;59.450;18.124;2023-11-18T14:26:58;1.50;;;1.40;;
10721;SDS011;5412;59.450;18.124;2023-11-18T14:29:24;2.67;;;1.47;;
10721;SDS011;5412;59.450;18.124;2023-11-18T14:31:51;2.20;;;1.60;;
10721;SDS011;5412;59.450;18.124;2023-11-18T14:34:17;1.47;;;1.33;;
10721;SDS011;5412;59.450;18.124;2023-11-18T14:36:43;1.37;;;1.20;;
10721;SDS011;5412;59.450;18.124;2023-11-18T14:39:09;1.50;;;1.30;;
10721;SDS011;5412;59.450;18.124;2023-11-18T14:41:38;1.63;;;1.20;;
10721;SDS011;5412;59.450;18.124;2023-11-18T14:44:04;1.60;;;1.40;;
10721;SDS011;5412;59.450;18.124;2023-11-18T14:46:33;2.90;;;1.40;;
10721;SDS011;5412;59.450;18.124;2023-11-18T14:48:59;1.40;;;1.30;;
10721;SDS011;5412;59.450;18.124;2023-11-18T14:51:24;1.50;;;1.40;;
10721;SDS011;5412;59.450;18.124;2023-11-18T14:53:51;1.80;;;1.40;;
10721;SDS011;5412;59.450;18.124;2023-11-18T14:56:17;2.33;;;1.93;;
10721;SDS011;5412;59.450;18.124;2023-11-18T14:58:43;2.03;;;1.70;;
10721;SDS011;5412;59.450;18.124;2023-11-18T15:01:14;2.40;;;1.60;;
10721;SDS011;5412;59.450;18.124;2023-11-18T15:03:40;1.40;;;1.30;;
10721;SDS011;5412;59.450;18.124;2023-11-18T15:06:06;1.67;;;1.57;;
10721;SDS011;5412;59.450;18.124;2023-11-18T15:08:35;2.27;;;1.50;;
10721;SDS011;5412;59.450;18.124;2023-11-18T15:11:01;2.13;;;1.60;;
10721;SDS011;5412;59.450;18.124;2023-11-18T15:13:27;2.50;;;1.27;;
10721;SDS011;5412;59.450;18.124;2023-11-18T15:15:52;1.60;;;1.50;;
10721;SDS011;5412;59.450;18.124;2023-11-18T15:18:18;1.60;;;1.50;;
10721;SDS011;5412;59.450;18.124;2023-11-18T15:20:44;2.00;;;1.40;;
10721;SDS011;5412;59.450;18.124;2023-11-18T15:23:14;1.47;;;1.37;;
10721;SDS011;5412;59.450;18.124;2023-11-18T15:25:41;1.47;;;1.37;;
10721;SDS011;5412;59.450;18.124;2023-11-18T15:28:07;1.93;;;1.47;;
10721;SDS011;5412;59.450;18.124;2023-11-18T15:30:39;3.03;;;2.10;;